Colombo Express — DIHC — position and weather

sailwx.info

Track history (hours):
 
Tides and Currents Weather Stations Pressure Air Temp Water Temp Dewpoint Dewpoint Depression Visibility Wind Speed Wind Dir Waves Ship Positions

Colombo Express

Last reported at 2019-Jun-16 21:00 UTC. Time now 2019-Jun-17 16:39 UTC.
Position N 46°00' W 154°42'.

Length 335.5 m; beam 42.8 m; draft 14.6 m.

Type: Ship (hazmat cat A). MMSI: 211433000.

Wind from 240 at 21 knots

Barometer 1008.1 mb
Air temperature 11.8 ° C
Visibility: greater than 10.8 NM
Dewpoint 7.5 ° C
Water temperature 10.0 ° C

Date/timePositionNaut miles runAvg speedWind from/ knotsBaromVisibWave heightAir tempDewpointWater temp
2019-Jun-16 21:00N 46°00' W 154°42'4314.5 240 / 211008.110.8 11.8 7.510.0
2019-Jun-16 18:00N 45°48' W 153°42'24013.3 250 / 121007.910.8 10.9 8.111.0
2019-Jun-16 00:00N 44°24' W 148°24'32813.7 220 / 301008.8 5.4 15.712.212.0
2019-Jun-15 00:00N 42°06' W 141°36'35214.7 190 / 201019.810.8 19.715.115.0
2019-Jun-14 00:00N 39°18' W 134°48'4414.8 020 / 141023.610.8 16.212.616.0
2019-Jun-13 21:00N 38°54' W 134°00'29814.5 020 / 181023.310.8 18.613.015.0
2019-Jun-13 00:26N 36°11' W 128°45'919.5
2019-Jun-13 00:00N 36°06' W 128°36'610.4 320 / 101017.110.8 17.111.416.0
2019-Jun-12 23:27N 36°03' W 128°30'1814.5
2019-Jun-12 22:14N 35°52' W 128°13'314.7
2019-Jun-12 22:00N 35°50' W 128°09'1514.8
2019-Jun-12 21:00N 35°42' W 127°54'1314.3 300 / 111017.410.8 16.312.115.0
2019-Jun-12 20:06N 35°34' W 127°41'114.7
2019-Jun-12 20:00N 35°34' W 127°40'21114.6
2019-Jun-12 05:31N 33°38' W 124°06'015.0
2019-Jun-12 05:30N 33°38' W 124°05'1814.9
2019-Jun-12 04:18N 33°38' W 123°44'714.8
2019-Jun-12 03:50N 33°38' W 123°36'1514.8
2019-Jun-12 02:51N 33°38' W 123°18'1314.7
2019-Jun-12 02:00N 33°39' W 123°03'714.7
2019-Jun-12 01:30N 33°39' W 122°54'714.6
2019-Jun-12 01:00N 33°38' W 122°45'714.6
2019-Jun-12 00:30N 33°38' W 122°37'714.5
2019-Jun-12 00:00N 33°38' W 122°28'714.5
2019-Jun-11 23:30N 33°38' W 122°19'714.4
2019-Jun-11 23:00N 33°38' W 122°11'714.6
2019-Jun-11 22:30N 33°38' W 122°02'714.5
2019-Jun-11 22:00N 33°38' W 121°53'714.0
2019-Jun-11 21:30N 33°38' W 121°45'713.9
2019-Jun-11 21:00N 33°38' W 121°36'2166.5
2019-Jun-11 21:00N 33°36' W 121°36'714.1 290 / 101016.110.8 19.614.515.0
2019-Jun-11 20:30N 33°38' W 121°28'714.0
2019-Jun-11 20:00N 33°38' W 121°20'713.8
2019-Jun-11 19:30N 33°38' W 121°12'713.7
2019-Jun-11 19:00N 33°38' W 121°03'5 9.1
2019-Jun-11 18:30N 33°38' W 120°58'4 8.7
2019-Jun-11 18:00N 33°38' W 120°53'4 9.0
2019-Jun-11 17:30N 33°38' W 120°47'5 9.5
2019-Jun-11 17:00N 33°38' W 120°42'5 9.5
2019-Jun-11 16:30N 33°38' W 120°36'5 9.5
2019-Jun-11 16:00N 33°38' W 120°30'5 9.7
2019-Jun-11 15:30N 33°39' W 120°24'5 9.7
2019-Jun-11 15:00N 33°39' W 120°18'5 9.7
2019-Jun-11 14:30N 33°39' W 120°13'5 9.5
2019-Jun-11 14:00N 33°39' W 120°07'5 9.6
2019-Jun-11 13:30N 33°39' W 120°01'5 9.6
2019-Jun-11 13:00N 33°39' W 119°55'5 9.6
2019-Jun-11 12:30N 33°39' W 119°50'5 9.8
2019-Jun-11 12:00N 33°39' W 119°44'5 9.7
2019-Jun-11 11:30N 33°39' W 119°38'5 9.6
2019-Jun-11 11:00N 33°40' W 119°32'5 9.5
2019-Jun-11 10:30N 33°40' W 119°26'5 9.6
2019-Jun-11 10:00N 33°40' W 119°21'5 9.5
2019-Jun-11 09:30N 33°40' W 119°15'5 9.6
2019-Jun-11 09:00N 33°40' W 119°09'5 9.6
2019-Jun-11 08:30N 33°40' W 119°03'5 9.4
2019-Jun-11 08:00N 33°40' W 118°58'5 9.1
2019-Jun-11 07:30N 33°40' W 118°52'5 9.1
2019-Jun-11 07:00N 33°39' W 118°47'5 9.4
2019-Jun-11 06:30N 33°39' W 118°41'5 9.5
2019-Jun-11 06:00N 33°39' W 118°36'5 9.6
2019-Jun-11 05:30N 33°39' W 118°30'5 9.4
2019-Jun-11 05:00N 33°38' W 118°24'4 8.8
2019-Jun-11 04:30N 33°38' W 118°19'4 8.1
2019-Jun-11 04:00N 33°41' W 118°15'4 7.0
2019-Jun-11 03:30N 33°44' W 118°17'2 3.1
2019-Jun-11 03:00N 33°46' W 118°17'0 0.7
2019-Jun-11 02:30N 33°46' W 118°16'0 0.0
2019-Jun-11 02:00N 33°46' W 118°16'0 0.0
2019-Jun-11 01:30N 33°46' W 118°16'0 0.0
2019-Jun-11 01:00N 33°46' W 118°16'0 0.0
2019-Jun-11 00:30N 33°46' W 118°16'0 0.0
2019-Jun-11 00:00N 33°46' W 118°16'0 0.0
2019-Jun-10 23:30N 33°46' W 118°16'0 0.0
2019-Jun-10 23:00N 33°46' W 118°16'0 0.0
2019-Jun-10 22:30N 33°46' W 118°16'0 0.0
2019-Jun-10 22:00N 33°46' W 118°16'0 0.0
2019-Jun-10 21:30N 33°46' W 118°16'0 0.0
2019-Jun-10 21:00N 33°46' W 118°16'0 0.0
2019-Jun-10 20:30N 33°46' W 118°16'0 0.0
2019-Jun-10 20:00N 33°46' W 118°16'0 0.0
2019-Jun-10 19:30N 33°46' W 118°16'0 0.0
2019-Jun-10 19:00N 33°46' W 118°16'0 0.0
2019-Jun-10 18:30N 33°46' W 118°16'0 0.0
2019-Jun-10 17:57N 33°46' W 118°16'0 0.0
2019-Jun-10 17:30N 33°46' W 118°16'0 0.0
2019-Jun-10 17:00N 33°46' W 118°16'0 0.0
2019-Jun-10 16:30N 33°46' W 118°16'0 0.0
2019-Jun-10 16:00N 33°46' W 118°16'0 0.0
2019-Jun-10 15:30N 33°46' W 118°16'0 0.0
2019-Jun-10 15:00N 33°46' W 118°16'0 0.0
2019-Jun-10 14:30N 33°46' W 118°16'0 0.0
2019-Jun-10 14:00N 33°46' W 118°16'0 0.0
2019-Jun-10 13:30N 33°46' W 118°16'0 0.0
2019-Jun-10 13:00N 33°46' W 118°16'0 0.0
2019-Jun-10 12:30N 33°46' W 118°16'0 0.0
2019-Jun-10 12:00N 33°46' W 118°16'0 0.0
2019-Jun-10 11:30N 33°46' W 118°16'0 0.0
2019-Jun-10 11:00N 33°46' W 118°16'0 0.0
2019-Jun-10 10:30N 33°46' W 118°16'0 0.0
2019-Jun-10 10:00N 33°46' W 118°16'0 0.0
2019-Jun-10 09:30N 33°46' W 118°16'0 0.0
2019-Jun-10 09:00N 33°46' W 118°16'0 0.0
2019-Jun-10 08:30N 33°46' W 118°16'0 0.0
2019-Jun-10 08:00N 33°46' W 118°16'0 0.0
2019-Jun-10 07:30N 33°46' W 118°16'0 0.0
2019-Jun-10 07:00N 33°46' W 118°16'0 0.0
2019-Jun-10 06:30N 33°46' W 118°16'0 0.0
2019-Jun-10 06:00N 33°46' W 118°16'0 0.0
2019-Jun-10 05:30N 33°46' W 118°16'0 0.0
2019-Jun-10 05:00N 33°46' W 118°16'0 0.0
2019-Jun-10 04:30N 33°46' W 118°16'0 0.0
2019-Jun-10 04:00N 33°46' W 118°16'0 0.0
2019-Jun-10 03:30N 33°46' W 118°16'0 0.0
2019-Jun-10 03:00N 33°46' W 118°16'0 0.0
2019-Jun-10 02:30N 33°46' W 118°16'0 0.0
2019-Jun-10 02:00N 33°46' W 118°16'0 0.0
2019-Jun-10 01:30N 33°46' W 118°16'0 0.0
2019-Jun-10 01:00N 33°46' W 118°16'0 0.0
2019-Jun-10 00:30N 33°46' W 118°16'0 0.0
2019-Jun-10 00:00N 33°46' W 118°16'0 0.0
2019-Jun-09 23:30N 33°46' W 118°16'0 0.0
2019-Jun-09 23:00N 33°46' W 118°16'0 0.0
2019-Jun-09 22:30N 33°46' W 118°16'0 0.0
2019-Jun-09 22:00N 33°46' W 118°16'0 0.0
2019-Jun-09 21:30N 33°46' W 118°16'0 0.0
2019-Jun-09 21:00N 33°46' W 118°16'0 0.0
2019-Jun-09 20:30N 33°46' W 118°16'0 0.0
2019-Jun-09 20:00N 33°46' W 118°16'0 0.0
2019-Jun-09 19:30N 33°46' W 118°16'0 0.0
2019-Jun-09 19:00N 33°46' W 118°16'0 0.0
2019-Jun-09 18:30N 33°46' W 118°16'0 0.0
2019-Jun-09 18:00N 33°46' W 118°16'0 0.0
2019-Jun-09 17:30N 33°46' W 118°16'0 0.0
2019-Jun-09 17:00N 33°46' W 118°16'0 0.0
2019-Jun-09 16:30N 33°46' W 118°16'0 0.0
2019-Jun-09 16:00N 33°46' W 118°16'0 0.0
2019-Jun-09 15:30N 33°46' W 118°16'0 0.0
2019-Jun-09 15:00N 33°46' W 118°16'0 0.0
2019-Jun-09 14:30N 33°46' W 118°16'0 0.0
2019-Jun-09 14:00N 33°46' W 118°16'0 0.0
2019-Jun-09 13:30N 33°46' W 118°16'0 0.0
2019-Jun-09 13:00N 33°46' W 118°16'0 0.0
2019-Jun-09 12:30N 33°46' W 118°16'0 0.0
2019-Jun-09 12:00N 33°46' W 118°16'0 0.0
2019-Jun-09 11:30N 33°46' W 118°16'0 0.0
2019-Jun-09 11:00N 33°46' W 118°16'0 0.0
2019-Jun-09 10:30N 33°46' W 118°16'0 0.0
2019-Jun-09 10:00N 33°46' W 118°16'0 0.0
2019-Jun-09 09:30N 33°46' W 118°16'0 0.0
2019-Jun-09 09:00N 33°46' W 118°16'0 0.0
2019-Jun-09 08:30N 33°46' W 118°16'0 0.0
2019-Jun-09 08:00N 33°46' W 118°16'0 0.0
2019-Jun-09 07:30N 33°46' W 118°16'0 0.0
2019-Jun-09 07:00N 33°46' W 118°16'0 0.0
2019-Jun-09 06:30N 33°46' W 118°16'0 0.0
2019-Jun-09 06:00N 33°46' W 118°16'0 0.0
2019-Jun-09 05:30N 33°46' W 118°16'0 0.0
2019-Jun-09 05:00N 33°46' W 118°16'0 0.0
2019-Jun-09 04:00N 33°46' W 118°16'0 0.0
2019-Jun-09 03:30N 33°46' W 118°16'0 0.0
2019-Jun-09 03:00N 33°46' W 118°16'0 0.0
2019-Jun-09 02:30N 33°46' W 118°16'0 0.0
2019-Jun-09 02:00N 33°46' W 118°16'0 0.0
2019-Jun-09 01:30N 33°46' W 118°16'0 0.0
2019-Jun-09 01:00N 33°46' W 118°16'0 0.0
2019-Jun-09 00:30N 33°46' W 118°16'0 0.0
2019-Jun-09 00:00N 33°46' W 118°16'0 0.0
2019-Jun-08 23:30N 33°46' W 118°16'0 0.0
2019-Jun-08 23:00N 33°46' W 118°16'0 0.0
2019-Jun-08 22:30N 33°46' W 118°16'0 0.0
2019-Jun-08 22:00N 33°46' W 118°16'0 0.0
2019-Jun-08 21:30N 33°46' W 118°16'0 0.0
2019-Jun-08 20:58N 33°46' W 118°16'0 0.0
2019-Jun-08 20:28N 33°46' W 118°16'0 0.0
2019-Jun-08 19:58N 33°46' W 118°16'0 0.0
2019-Jun-08 19:28N 33°46' W 118°16'0 0.0
2019-Jun-08 18:58N 33°46' W 118°16'0 0.0
2019-Jun-08 18:28N 33°46' W 118°16'0 0.0
2019-Jun-08 17:58N 33°46' W 118°16'0 0.0
2019-Jun-08 17:28N 33°46' W 118°16'0 0.0
2019-Jun-08 16:58N 33°46' W 118°16'0 0.0
2019-Jun-08 16:28N 33°46' W 118°16'0 0.0
2019-Jun-08 15:58N 33°46' W 118°16'0 0.0
2019-Jun-08 15:28N 33°46' W 118°16'0 0.0
2019-Jun-08 14:58N 33°46' W 118°16'0 0.0
2019-Jun-08 14:22N 33°46' W 118°16'0 0.0
2019-Jun-08 13:58N 33°46' W 118°16'0 0.0
2019-Jun-08 13:25N 33°46' W 118°16'0 0.0
2019-Jun-08 12:58N 33°46' W 118°16'0 0.0
2019-Jun-08 12:28N 33°46' W 118°16'0 0.0
2019-Jun-08 11:58N 33°46' W 118°16'0 0.0
2019-Jun-08 11:28N 33°46' W 118°16'0 0.0
2019-Jun-08 10:58N 33°46' W 118°16'0 0.0
2019-Jun-08 10:28N 33°46' W 118°16'0 0.0
2019-Jun-08 09:58N 33°46' W 118°16'0 0.0
2019-Jun-08 09:28N 33°46' W 118°16'0 0.0
2019-Jun-08 08:58N 33°46' W 118°16'0 0.0
2019-Jun-08 08:28N 33°46' W 118°16'0 0.0
2019-Jun-08 07:58N 33°46' W 118°16'0 0.0
2019-Jun-08 07:28N 33°46' W 118°16'0 0.0
2019-Jun-08 06:58N 33°46' W 118°16'0 0.0
2019-Jun-08 06:25N 33°46' W 118°16'0 0.0
2019-Jun-08 05:58N 33°46' W 118°16'0 0.0
2019-Jun-08 05:28N 33°46' W 118°16'0 0.0
2019-Jun-08 04:58N 33°46' W 118°16'0 0.0
2019-Jun-08 04:28N 33°46' W 118°16'0 0.0
2019-Jun-08 03:58N 33°46' W 118°16'0 0.0
2019-Jun-08 03:28N 33°46' W 118°16'0 0.0
2019-Jun-08 02:58N 33°46' W 118°16'0 0.0
2019-Jun-08 02:28N 33°46' W 118°16'0 0.0
2019-Jun-08 01:55N 33°46' W 118°16'0 0.0
2019-Jun-08 01:25N 33°46' W 118°16'0 0.0
2019-Jun-08 00:58N 33°46' W 118°16'0 0.0
2019-Jun-08 00:28N 33°46' W 118°16'0 0.0
2019-Jun-07 23:52N 33°46' W 118°16'0 0.0
2019-Jun-07 23:25N 33°46' W 118°16'0 0.0
2019-Jun-07 22:58N 33°46' W 118°16'0 0.0
2019-Jun-07 22:28N 33°46' W 118°16'0 0.0
2019-Jun-07 21:58N 33°46' W 118°16'0 0.0
2019-Jun-07 21:28N 33°46' W 118°16'0 0.0
2019-Jun-07 20:58N 33°46' W 118°16'0 0.0
2019-Jun-07 20:28N 33°46' W 118°16'0 0.0
2019-Jun-07 19:58N 33°46' W 118°16'0 0.0
2019-Jun-07 19:28N 33°46' W 118°16'0 0.0
2019-Jun-07 18:58N 33°46' W 118°16'0 0.0
2019-Jun-07 18:28N 33°46' W 118°16'0 0.0
2019-Jun-07 17:58N 33°46' W 118°16'0 0.0
2019-Jun-07 17:28N 33°46' W 118°16'0 0.0
2019-Jun-07 16:58N 33°46' W 118°16'0 0.0
2019-Jun-07 16:28N 33°46' W 118°16'0 0.0
2019-Jun-07 15:55N 33°46' W 118°16'0 0.0
2019-Jun-07 15:28N 33°46' W 118°16'0 0.0
2019-Jun-07 14:58N 33°46' W 118°16'0 0.0
2019-Jun-07 14:28N 33°46' W 118°16'0 0.0
2019-Jun-07 13:58N 33°46' W 118°16'0 0.0
2019-Jun-07 13:28N 33°46' W 118°16'0 0.0
2019-Jun-07 12:58N 33°46' W 118°16'0 0.0
2019-Jun-07 12:28N 33°46' W 118°16'0 0.0
2019-Jun-07 11:58N 33°46' W 118°16'0 0.0
2019-Jun-07 11:28N 33°46' W 118°16'0 0.0
2019-Jun-07 10:58N 33°46' W 118°16'0 0.0
2019-Jun-07 10:28N 33°46' W 118°16'0 0.0
2019-Jun-07 09:52N 33°46' W 118°16'0 0.0
2019-Jun-07 09:28N 33°46' W 118°16'0 0.0
2019-Jun-07 08:58N 33°46' W 118°16'0 0.0
2019-Jun-07 08:28N 33°46' W 118°16'0 0.0
2019-Jun-07 07:58N 33°46' W 118°16'0 0.0
2019-Jun-07 07:28N 33°46' W 118°16'0 0.0
2019-Jun-07 06:58N 33°46' W 118°16'0 0.0
2019-Jun-07 06:28N 33°46' W 118°16'0 0.0
2019-Jun-07 05:58N 33°46' W 118°16'0 0.0
2019-Jun-07 05:25N 33°46' W 118°16'0 0.0
2019-Jun-07 04:58N 33°46' W 118°16'0 0.0
2019-Jun-07 04:28N 33°46' W 118°16'0 0.0
2019-Jun-07 03:58N 33°46' W 118°16'0 0.0
2019-Jun-07 03:25N 33°46' W 118°16'0 0.0
2019-Jun-07 02:58N 33°46' W 118°16'0 0.0
2019-Jun-07 02:28N 33°46' W 118°16'0 0.0
2019-Jun-07 01:58N 33°46' W 118°16'0 0.0
2019-Jun-07 01:25N 33°46' W 118°16'0 0.0
2019-Jun-07 00:58N 33°46' W 118°16'0 0.0
2019-Jun-07 00:22N 33°46' W 118°16'0 0.0
2019-Jun-06 23:58N 33°46' W 118°16'0 0.0
2019-Jun-06 23:25N 33°46' W 118°16'0 0.0
2019-Jun-06 22:55N 33°46' W 118°16'0 0.0
2019-Jun-06 22:28N 33°46' W 118°16'0 0.0
2019-Jun-06 21:58N 33°46' W 118°16'0 0.0
2019-Jun-06 21:28N 33°46' W 118°16'  
Track history (hours):
 
Tides and Currents Weather Stations Pressure Air Temp Water Temp Dewpoint Dewpoint Depression Visibility Wind Speed Wind Dir Waves Ship Positions

Colombo Express

Last reported at 2019-Jun-16 21:00 UTC. Time now 2019-Jun-17 16:39 UTC.
Position N 46°00' W 154°42'.

Length 335.5 m; beam 42.8 m; draft 14.6 m.

Type: Ship (hazmat cat A). MMSI: 211433000.

Wind from 240 at 21 knots

Barometer 1008.1 mb
Air temperature 11.8 ° C
Visibility: greater than 10.8 NM
Dewpoint 7.5 ° C
Water temperature 10.0 ° C

Date/timePositionNaut miles runAvg speedWind from/ knotsBaromVisibWave heightAir tempDewpointWater temp
2019-Jun-16 21:00N 46°00' W 154°42'4314.5 240 / 211008.110.8 11.8 7.510.0
2019-Jun-16 18:00N 45°48' W 153°42'24013.3 250 / 121007.910.8 10.9 8.111.0
2019-Jun-16 00:00N 44°24' W 148°24'32813.7 220 / 301008.8 5.4 15.712.212.0
2019-Jun-15 00:00N 42°06' W 141°36'35214.7 190 / 201019.810.8 19.715.115.0
2019-Jun-14 00:00N 39°18' W 134°48'4414.8 020 / 141023.610.8 16.212.616.0
2019-Jun-13 21:00N 38°54' W 134°00'29814.5 020 / 181023.310.8 18.613.015.0
2019-Jun-13 00:26N 36°11' W 128°45'919.5
2019-Jun-13 00:00N 36°06' W 128°36'610.4 320 / 101017.110.8 17.111.416.0
2019-Jun-12 23:27N 36°03' W 128°30'1814.5
2019-Jun-12 22:14N 35°52' W 128°13'314.7
2019-Jun-12 22:00N 35°50' W 128°09'1514.8
2019-Jun-12 21:00N 35°42' W 127°54'1314.3 300 / 111017.410.8 16.312.115.0
2019-Jun-12 20:06N 35°34' W 127°41'114.7
2019-Jun-12 20:00N 35°34' W 127°40'21114.6
2019-Jun-12 05:31N 33°38' W 124°06'015.0
2019-Jun-12 05:30N 33°38' W 124°05'1814.9
2019-Jun-12 04:18N 33°38' W 123°44'714.8
2019-Jun-12 03:50N 33°38' W 123°36'1514.8
2019-Jun-12 02:51N 33°38' W 123°18'1314.7
2019-Jun-12 02:00N 33°39' W 123°03'714.7
2019-Jun-12 01:30N 33°39' W 122°54'714.6
2019-Jun-12 01:00N 33°38' W 122°45'714.6
2019-Jun-12 00:30N 33°38' W 122°37'714.5
2019-Jun-12 00:00N 33°38' W 122°28'714.5
2019-Jun-11 23:30N 33°38' W 122°19'714.4
2019-Jun-11 23:00N 33°38' W 122°11'714.6
2019-Jun-11 22:30N 33°38' W 122°02'714.5
2019-Jun-11 22:00N 33°38' W 121°53'714.0
2019-Jun-11 21:30N 33°38' W 121°45'713.9
2019-Jun-11 21:00N 33°38' W 121°36'2166.5
2019-Jun-11 21:00N 33°36' W 121°36'714.1 290 / 101016.110.8 19.614.515.0
2019-Jun-11 20:30N 33°38' W 121°28'714.0
2019-Jun-11 20:00N 33°38' W 121°20'713.8
2019-Jun-11 19:30N 33°38' W 121°12'713.7
2019-Jun-11 19:00N 33°38' W 121°03'5 9.1
2019-Jun-11 18:30N 33°38' W 120°58'4 8.7
2019-Jun-11 18:00N 33°38' W 120°53'4 9.0
2019-Jun-11 17:30N 33°38' W 120°47'5 9.5
2019-Jun-11 17:00N 33°38' W 120°42'5 9.5
2019-Jun-11 16:30N 33°38' W 120°36'5 9.5
2019-Jun-11 16:00N 33°38' W 120°30'5 9.7
2019-Jun-11 15:30N 33°39' W 120°24'5 9.7
2019-Jun-11 15:00N 33°39' W 120°18'5 9.7
2019-Jun-11 14:30N 33°39' W 120°13'5 9.5
2019-Jun-11 14:00N 33°39' W 120°07'5 9.6
2019-Jun-11 13:30N 33°39' W 120°01'5 9.6
2019-Jun-11 13:00N 33°39' W 119°55'5 9.6
2019-Jun-11 12:30N 33°39' W 119°50'5 9.8
2019-Jun-11 12:00N 33°39' W 119°44'5 9.7
2019-Jun-11 11:30N 33°39' W 119°38'5 9.6
2019-Jun-11 11:00N 33°40' W 119°32'5 9.5
2019-Jun-11 10:30N 33°40' W 119°26'5 9.6
2019-Jun-11 10:00N 33°40' W 119°21'5 9.5
2019-Jun-11 09:30N 33°40' W 119°15'5 9.6
2019-Jun-11 09:00N 33°40' W 119°09'5 9.6
2019-Jun-11 08:30N 33°40' W 119°03'5 9.4
2019-Jun-11 08:00N 33°40' W 118°58'5 9.1
2019-Jun-11 07:30N 33°40' W 118°52'5 9.1
2019-Jun-11 07:00N 33°39' W 118°47'5 9.4
2019-Jun-11 06:30N 33°39' W 118°41'5 9.5
2019-Jun-11 06:00N 33°39' W 118°36'5 9.6
2019-Jun-11 05:30N 33°39' W 118°30'5 9.4
2019-Jun-11 05:00N 33°38' W 118°24'4 8.8
2019-Jun-11 04:30N 33°38' W 118°19'4 8.1
2019-Jun-11 04:00N 33°41' W 118°15'4 7.0
2019-Jun-11 03:30N 33°44' W 118°17'2 3.1
2019-Jun-11 03:00N 33°46' W 118°17'0 0.7
2019-Jun-11 02:30N 33°46' W 118°16'0 0.0
2019-Jun-11 02:00N 33°46' W 118°16'0 0.0
2019-Jun-11 01:30N 33°46' W 118°16'0 0.0
2019-Jun-11 01:00N 33°46' W 118°16'0 0.0
2019-Jun-11 00:30N 33°46' W 118°16'0 0.0
2019-Jun-11 00:00N 33°46' W 118°16'0 0.0
2019-Jun-10 23:30N 33°46' W 118°16'0 0.0
2019-Jun-10 23:00N 33°46' W 118°16'0 0.0
2019-Jun-10 22:30N 33°46' W 118°16'0 0.0
2019-Jun-10 22:00N 33°46' W 118°16'0 0.0
2019-Jun-10 21:30N 33°46' W 118°16'0 0.0
2019-Jun-10 21:00N 33°46' W 118°16'0 0.0
2019-Jun-10 20:30N 33°46' W 118°16'0 0.0
2019-Jun-10 20:00N 33°46' W 118°16'0 0.0
2019-Jun-10 19:30N 33°46' W 118°16'0 0.0
2019-Jun-10 19:00N 33°46' W 118°16'0 0.0
2019-Jun-10 18:30N 33°46' W 118°16'0 0.0
2019-Jun-10 17:57N 33°46' W 118°16'0 0.0
2019-Jun-10 17:30N 33°46' W 118°16'0 0.0
2019-Jun-10 17:00N 33°46' W 118°16'0 0.0
2019-Jun-10 16:30N 33°46' W 118°16'0 0.0
2019-Jun-10 16:00N 33°46' W 118°16'0 0.0
2019-Jun-10 15:30N 33°46' W 118°16'0 0.0
2019-Jun-10 15:00N 33°46' W 118°16'0 0.0
2019-Jun-10 14:30N 33°46' W 118°16'0 0.0
2019-Jun-10 14:00N 33°46' W 118°16'0 0.0
2019-Jun-10 13:30N 33°46' W 118°16'0 0.0
2019-Jun-10 13:00N 33°46' W 118°16'0 0.0
2019-Jun-10 12:30N 33°46' W 118°16'0 0.0
2019-Jun-10 12:00N 33°46' W 118°16'0 0.0
2019-Jun-10 11:30N 33°46' W 118°16'0 0.0
2019-Jun-10 11:00N 33°46' W 118°16'0 0.0
2019-Jun-10 10:30N 33°46' W 118°16'0 0.0
2019-Jun-10 10:00N 33°46' W 118°16'0 0.0
2019-Jun-10 09:30N 33°46' W 118°16'0 0.0
2019-Jun-10 09:00N 33°46' W 118°16'0 0.0
2019-Jun-10 08:30N 33°46' W 118°16'0 0.0
2019-Jun-10 08:00N 33°46' W 118°16'0 0.0
2019-Jun-10 07:30N 33°46' W 118°16'0 0.0
2019-Jun-10 07:00N 33°46' W 118°16'0 0.0
2019-Jun-10 06:30N 33°46' W 118°16'0 0.0
2019-Jun-10 06:00N 33°46' W 118°16'0 0.0
2019-Jun-10 05:30N 33°46' W 118°16'0 0.0
2019-Jun-10 05:00N 33°46' W 118°16'0 0.0
2019-Jun-10 04:30N 33°46' W 118°16'0 0.0
2019-Jun-10 04:00N 33°46' W 118°16'0 0.0
2019-Jun-10 03:30N 33°46' W 118°16'0 0.0
2019-Jun-10 03:00N 33°46' W 118°16'0 0.0
2019-Jun-10 02:30N 33°46' W 118°16'0 0.0
2019-Jun-10 02:00N 33°46' W 118°16'0 0.0
2019-Jun-10 01:30N 33°46' W 118°16'0 0.0
2019-Jun-10 01:00N 33°46' W 118°16'0 0.0
2019-Jun-10 00:30N 33°46' W 118°16'0 0.0
2019-Jun-10 00:00N 33°46' W 118°16'0 0.0
2019-Jun-09 23:30N 33°46' W 118°16'0 0.0
2019-Jun-09 23:00N 33°46' W 118°16'0 0.0
2019-Jun-09 22:30N 33°46' W 118°16'0 0.0
2019-Jun-09 22:00N 33°46' W 118°16'0 0.0
2019-Jun-09 21:30N 33°46' W 118°16'0 0.0
2019-Jun-09 21:00N 33°46' W 118°16'0 0.0
2019-Jun-09 20:30N 33°46' W 118°16'0 0.0
2019-Jun-09 20:00N 33°46' W 118°16'0 0.0
2019-Jun-09 19:30N 33°46' W 118°16'0 0.0
2019-Jun-09 19:00N 33°46' W 118°16'0 0.0
2019-Jun-09 18:30N 33°46' W 118°16'0 0.0
2019-Jun-09 18:00N 33°46' W 118°16'0 0.0
2019-Jun-09 17:30N 33°46' W 118°16'0 0.0
2019-Jun-09 17:00N 33°46' W 118°16'0 0.0
2019-Jun-09 16:30N 33°46' W 118°16'0 0.0
2019-Jun-09 16:00N 33°46' W 118°16'0 0.0
2019-Jun-09 15:30N 33°46' W 118°16'0 0.0
2019-Jun-09 15:00N 33°46' W 118°16'0 0.0
2019-Jun-09 14:30N 33°46' W 118°16'0 0.0
2019-Jun-09 14:00N 33°46' W 118°16'0 0.0
2019-Jun-09 13:30N 33°46' W 118°16'0 0.0
2019-Jun-09 13:00N 33°46' W 118°16'0 0.0
2019-Jun-09 12:30N 33°46' W 118°16'0 0.0
2019-Jun-09 12:00N 33°46' W 118°16'0 0.0
2019-Jun-09 11:30N 33°46' W 118°16'0 0.0
2019-Jun-09 11:00N 33°46' W 118°16'0 0.0
2019-Jun-09 10:30N 33°46' W 118°16'0 0.0
2019-Jun-09 10:00N 33°46' W 118°16'0 0.0
2019-Jun-09 09:30N 33°46' W 118°16'0 0.0
2019-Jun-09 09:00N 33°46' W 118°16'0 0.0
2019-Jun-09 08:30N 33°46' W 118°16'0 0.0
2019-Jun-09 08:00N 33°46' W 118°16'0 0.0
2019-Jun-09 07:30N 33°46' W 118°16'0 0.0
2019-Jun-09 07:00N 33°46' W 118°16'0 0.0
2019-Jun-09 06:30N 33°46' W 118°16'0 0.0
2019-Jun-09 06:00N 33°46' W 118°16'0 0.0
2019-Jun-09 05:30N 33°46' W 118°16'0 0.0
2019-Jun-09 05:00N 33°46' W 118°16'0 0.0
2019-Jun-09 04:00N 33°46' W 118°16'0 0.0
2019-Jun-09 03:30N 33°46' W 118°16'0 0.0
2019-Jun-09 03:00N 33°46' W 118°16'0 0.0
2019-Jun-09 02:30N 33°46' W 118°16'0 0.0
2019-Jun-09 02:00N 33°46' W 118°16'0 0.0
2019-Jun-09 01:30N 33°46' W 118°16'0 0.0
2019-Jun-09 01:00N 33°46' W 118°16'0 0.0
2019-Jun-09 00:30N 33°46' W 118°16'0 0.0
2019-Jun-09 00:00N 33°46' W 118°16'0 0.0
2019-Jun-08 23:30N 33°46' W 118°16'0 0.0
2019-Jun-08 23:00N 33°46' W 118°16'0 0.0
2019-Jun-08 22:30N 33°46' W 118°16'0 0.0
2019-Jun-08 22:00N 33°46' W 118°16'0 0.0
2019-Jun-08 21:30N 33°46' W 118°16'0 0.0
2019-Jun-08 20:58N 33°46' W 118°16'0 0.0
2019-Jun-08 20:28N 33°46' W 118°16'0 0.0
2019-Jun-08 19:58N 33°46' W 118°16'0 0.0
2019-Jun-08 19:28N 33°46' W 118°16'0 0.0
2019-Jun-08 18:58N 33°46' W 118°16'0 0.0
2019-Jun-08 18:28N 33°46' W 118°16'0 0.0
2019-Jun-08 17:58N 33°46' W 118°16'0 0.0
2019-Jun-08 17:28N 33°46' W 118°16'0 0.0
2019-Jun-08 16:58N 33°46' W 118°16'0 0.0
2019-Jun-08 16:28N 33°46' W 118°16'0 0.0
2019-Jun-08 15:58N 33°46' W 118°16'0 0.0
2019-Jun-08 15:28N 33°46' W 118°16'0 0.0
2019-Jun-08 14:58N 33°46' W 118°16'0 0.0
2019-Jun-08 14:22N 33°46' W 118°16'0 0.0
2019-Jun-08 13:58N 33°46' W 118°16'0 0.0
2019-Jun-08 13:25N 33°46' W 118°16'0 0.0
2019-Jun-08 12:58N 33°46' W 118°16'0 0.0
2019-Jun-08 12:28N 33°46' W 118°16'0 0.0
2019-Jun-08 11:58N 33°46' W 118°16'0 0.0
2019-Jun-08 11:28N 33°46' W 118°16'0 0.0
2019-Jun-08 10:58N 33°46' W 118°16'0 0.0
2019-Jun-08 10:28N 33°46' W 118°16'0 0.0
2019-Jun-08 09:58N 33°46' W 118°16'0 0.0
2019-Jun-08 09:28N 33°46' W 118°16'0 0.0
2019-Jun-08 08:58N 33°46' W 118°16'0 0.0
2019-Jun-08 08:28N 33°46' W 118°16'0 0.0
2019-Jun-08 07:58N 33°46' W 118°16'0 0.0
2019-Jun-08 07:28N 33°46' W 118°16'0 0.0
2019-Jun-08 06:58N 33°46' W 118°16'0 0.0
2019-Jun-08 06:25N 33°46' W 118°16'0 0.0
2019-Jun-08 05:58N 33°46' W 118°16'0 0.0
2019-Jun-08 05:28N 33°46' W 118°16'0 0.0
2019-Jun-08 04:58N 33°46' W 118°16'0 0.0
2019-Jun-08 04:28N 33°46' W 118°16'0 0.0
2019-Jun-08 03:58N 33°46' W 118°16'0 0.0
2019-Jun-08 03:28N 33°46' W 118°16'0 0.0
2019-Jun-08 02:58N 33°46' W 118°16'0 0.0
2019-Jun-08 02:28N 33°46' W 118°16'0 0.0
2019-Jun-08 01:55N 33°46' W 118°16'0 0.0
2019-Jun-08 01:25N 33°46' W 118°16'0 0.0
2019-Jun-08 00:58N 33°46' W 118°16'0 0.0
2019-Jun-08 00:28N 33°46' W 118°16'0 0.0
2019-Jun-07 23:52N 33°46' W 118°16'0 0.0
2019-Jun-07 23:25N 33°46' W 118°16'0 0.0
2019-Jun-07 22:58N 33°46' W 118°16'0 0.0
2019-Jun-07 22:28N 33°46' W 118°16'0 0.0
2019-Jun-07 21:58N 33°46' W 118°16'0 0.0
2019-Jun-07 21:28N 33°46' W 118°16'0 0.0
2019-Jun-07 20:58N 33°46' W 118°16'0 0.0
2019-Jun-07 20:28N 33°46' W 118°16'0 0.0
2019-Jun-07 19:58N 33°46' W 118°16'0 0.0
2019-Jun-07 19:28N 33°46' W 118°16'0 0.0
2019-Jun-07 18:58N 33°46' W 118°16'0 0.0
2019-Jun-07 18:28N 33°46' W 118°16'0 0.0
2019-Jun-07 17:58N 33°46' W 118°16'0 0.0
2019-Jun-07 17:28N 33°46' W 118°16'0 0.0
2019-Jun-07 16:58N 33°46' W 118°16'0 0.0
2019-Jun-07 16:28N 33°46' W 118°16'0 0.0
2019-Jun-07 15:55N 33°46' W 118°16'0 0.0
2019-Jun-07 15:28N 33°46' W 118°16'0 0.0
2019-Jun-07 14:58N 33°46' W 118°16'0 0.0
2019-Jun-07 14:28N 33°46' W 118°16'0 0.0
2019-Jun-07 13:58N 33°46' W 118°16'0 0.0
2019-Jun-07 13:28N 33°46' W 118°16'0 0.0
2019-Jun-07 12:58N 33°46' W 118°16'0 0.0
2019-Jun-07 12:28N 33°46' W 118°16'0 0.0
2019-Jun-07 11:58N 33°46' W 118°16'0 0.0
2019-Jun-07 11:28N 33°46' W 118°16'0 0.0
2019-Jun-07 10:58N 33°46' W 118°16'0 0.0
2019-Jun-07 10:28N 33°46' W 118°16'0 0.0
2019-Jun-07 09:52N 33°46' W 118°16'0 0.0
2019-Jun-07 09:28N 33°46' W 118°16'0 0.0
2019-Jun-07 08:58N 33°46' W 118°16'0 0.0
2019-Jun-07 08:28N 33°46' W 118°16'0 0.0
2019-Jun-07 07:58N 33°46' W 118°16'0 0.0
2019-Jun-07 07:28N 33°46' W 118°16'0 0.0
2019-Jun-07 06:58N 33°46' W 118°16'0 0.0
2019-Jun-07 06:28N 33°46' W 118°16'0 0.0
2019-Jun-07 05:58N 33°46' W 118°16'0 0.0
2019-Jun-07 05:25N 33°46' W 118°16'0 0.0
2019-Jun-07 04:58N 33°46' W 118°16'0 0.0
2019-Jun-07 04:28N 33°46' W 118°16'0 0.0
2019-Jun-07 03:58N 33°46' W 118°16'0 0.0
2019-Jun-07 03:25N 33°46' W 118°16'0 0.0
2019-Jun-07 02:58N 33°46' W 118°16'0 0.0
2019-Jun-07 02:28N 33°46' W 118°16'0 0.0
2019-Jun-07 01:58N 33°46' W 118°16'0 0.0
2019-Jun-07 01:25N 33°46' W 118°16'0 0.0
2019-Jun-07 00:58N 33°46' W 118°16'0 0.0
2019-Jun-07 00:22N 33°46' W 118°16'0 0.0
2019-Jun-06 23:58N 33°46' W 118°16'0 0.0
2019-Jun-06 23:25N 33°46' W 118°16'0 0.0
2019-Jun-06 22:55N 33°46' W 118°16'0 0.0
2019-Jun-06 22:28N 33°46' W 118°16'0 0.0
2019-Jun-06 21:58N 33°46' W 118°16'0 0.0
2019-Jun-06 21:28N 33°46' W 118°16'  

Dump ship's entire track history